Time;durP1;ratioP1;P1;durP2;ratioP2;P2;SDS_P1;SDS_P2;PMS_P1;PMS_P2;Temp;Humidity;BMP_temperature;BMP_pressure;BME280_temperature;BME280_humidity;BME280_pressure;Samples;Min_cycle;Max_cycle;Signal;HPM_P1;HPM_P2
2022/12/14 00:33:57;;;;;;;22.00;11.73;;;2.10;68.20;;;;;;4988200;28;20221;-96
2022/12/14 00:39:54;;;;;;;;;;;;;;;;;;;;;
2022/12/14 00:54:05;;;;;;;27.33;12.87;;;2.00;68.40;;;;;;5001182;28;20235;-95
2022/12/14 01:10:40;;;;;;;29.93;13.87;;;2.00;68.60;;;;;;5209911;23;20269;-96
2022/12/14 01:13:36;;;;;;;23.47;12.80;;;2.00;68.30;;;;;;4960294;28;20198;-95
2022/12/14 01:16:35;;;;;;;20.07;12.10;;;2.00;68.50;;;;;;4965930;28;20914;-95
2022/12/14 01:19:42;;;;;;;26.77;12.17;;;2.00;68.50;;;;;;4965098;28;20242;-95
2022/12/14 01:36:39;;;;;;;;;;;;;;;;;;;;;
2022/12/14 02:48:40;;;;;;;19.67;10.90;;;2.00;68.80;;;;;;4741749;30;20273;-95
2022/12/14 02:58:47;;;;;;;21.00;11.00;;;2.00;69.00;;;;;;4705740;30;20287;-95
2022/12/14 10:40:33;;;;;;;22.43;11.10;;;2.20;70.60;;;;;;4938031;29;20760;-95
2022/12/14 10:43:33;;;;;;;23.20;11.40;;;2.30;70.60;;;;;;4941333;29;20219;-96
2022/12/14 10:46:21;;;;;;;21.90;11.63;;;2.30;70.50;;;;;;4945223;29;20575;-96
2022/12/14 10:49:15;;;;;;;27.17;12.47;;;2.40;70.70;;;;;;4927586;29;20244;-95
2022/12/14 10:55:09;;;;;;;27.07;12.13;;;2.50;70.60;;;;;;5102351;23;20248;-96
2022/12/14 11:27:09;;;;;;;;;;;;;;;;;;;;;
2022/12/14 11:29:57;;;;;;;19.73;10.73;;;3.80;72.20;;;;;;4917287;29;20288;-96
2022/12/14 11:32:26;;;;;;;27.63;11.63;;;4.10;71.70;;;;;;4918914;29;20213;-95
2022/12/14 11:35:00;;;;;;;21.20;10.77;;;4.30;71.60;;;;;;4938862;29;20208;-95
2022/12/14 11:37:42;;;;;;;22.70;11.17;;;4.40;71.40;;;;;;4938550;29;20556;-94
2022/12/14 11:40:21;;;;;;;17.97;10.87;;;4.70;71.10;;;;;;4920473;29;20218;-94
2022/12/14 11:42:53;;;;;;;20.77;11.60;;;5.00;71.10;;;;;;4929685;29;20216;-96
2022/12/14 11:45:37;;;;;;;17.47;11.07;;;5.20;71.00;;;;;;4937199;29;20217;-95
2022/12/14 11:48:28;;;;;;;22.00;11.37;;;5.50;70.80;;;;;;4926849;29;20262;-96
2022/12/14 11:51:11;;;;;;;21.27;10.77;;;5.70;70.10;;;;;;4899122;29;20301;-96
2022/12/14 11:53:41;;;;;;;16.27;10.17;;;6.00;69.70;;;;;;4918930;29;20214;-96
2022/12/14 11:56:20;;;;;;;19.20;10.97;;;6.20;69.80;;;;;;4912744;29;20231;-96
2022/12/14 11:58:54;;;;;;;15.83;10.23;;;6.40;68.50;;;;;;4925917;29;20216;-96
2022/12/14 12:01:27;;;;;;;18.27;10.57;;;6.50;67.70;;;;;;4917695;29;20216;-96
2022/12/14 12:03:57;;;;;;;18.97;11.03;;;6.70;67.50;;;;;;4910815;29;20263;-96
2022/12/14 12:06:33;;;;;;;19.80;10.87;;;6.90;66.90;;;;;;4929252;29;20199;-96
2022/12/14 12:09:28;;;;;;;13.03;9.23;;;7.00;65.90;;;;;;4925480;29;20239;-96
2022/12/14 12:14:47;;;;;;;16.10;10.27;;;7.30;65.70;;;;;;4925731;29;20551;-96
2022/12/14 12:17:50;;;;;;;16.70;9.53;;;7.50;65.70;;;;;;4933083;29;20279;-96
2022/12/14 12:23:12;;;;;;;17.03;10.27;;;7.70;64.30;;;;;;5021576;23;20259;-96
2022/12/14 12:26:16;;;;;;;15.97;10.43;;;7.90;64.20;;;;;;4952443;29;20207;-96
2022/12/14 12:29:00;;;;;;;16.47;9.93;;;8.00;63.30;;;;;;4951350;29;20223;-96
2022/12/14 12:32:25;;;;;;;17.30;9.67;;;8.10;63.70;;;;;;4946907;29;20632;-96
2022/12/14 12:35:04;;;;;;;14.50;9.60;;;8.20;63.00;;;;;;4947729;29;20195;-96
2022/12/14 12:37:36;;;;;;;13.63;9.10;;;8.30;62.60;;;;;;4949290;29;20204;-96
2022/12/14 12:40:21;;;;;;;19.57;10.60;;;8.40;62.30;;;;;;4945196;29;20216;-96
2022/12/14 12:42:59;;;;;;;18.43;11.00;;;8.50;60.90;;;;;;4947638;29;20244;-96
2022/12/14 12:45:36;;;;;;;16.93;9.63;;;8.60;61.80;;;;;;4946044;29;20237;-96
2022/12/14 12:48:11;;;;;;;14.03;9.27;;;8.70;62.00;;;;;;4953695;29;20235;-96
2022/12/14 12:50:51;;;;;;;20.37;11.17;;;8.80;61.50;;;;;;4955668;29;20255;-96
2022/12/14 12:53:29;;;;;;;18.90;10.07;;;8.80;60.20;;;;;;4939844;29;20219;-96
2022/12/14 12:56:05;;;;;;;23.70;11.73;;;8.90;60.80;;;;;;4942849;29;20227;-96
2022/12/14 13:51:24;;;;;;;;;;;;;;;;;;;;;
